Portada
METAR-TAF:

METAR-TAF

Aeroports :

Zahedan, Iran

latitud: 29-28N, longitud: 060-53E, altitud: 1370 m

Observació

L'informe es va fer fa 39 minuts, a les 09:00 UTC
Vent 12 kt del Sud/Sud-Est
Temperatura 28°C
Humitat 17%
Pressió 1017 hPa
Visibilitat 10 km o més
sense núvols per sota de 1500 mi sense presència de cumulonimbus.

METAR: OIZH 080900Z 15012KT CAVOK 28/01 Q1017 A3004 NOSIG

Hora: 14:09 (09:39 UTC)

Pronòstic

L'informe es va fer fa 4 hores i 9 minuts, a les 05:30 UTC
Pronòstic vàlid del 08 a les 06 UTC al 09 a les 12 UTC
Vent 10 kt del Sud
Visibilitat 10 km o més
sense núvols per sota de 1500 mi sense presència de cumulonimbus.
Temporalment
l' 08 a les 11 UTC al 08 a les 16 UTC
Vent 12 kt del Nord amb ràfegues de 24 kt
Visibilitat: 5000 m
Escasses núvols a una alçada de 3500 ft, Cumulus congestus.
Núvols disperses a una alçada de 10000 ft
sorra

TAF: OIZH 080530Z 0806/0912 18010KT CAVOK TEMPO 0811/0816 01012G24KT 5000 SA FEW035TCU SCT100

Observacions i pronòstics meteorològics de més de 4000 aeroports (METAR i TAF).

Les estacions disponibles són els punts grocs i vermells al mapa.

Posi el ratolí al punt desitjat per veure el nom de l'estació.

Feu clic per veure les observacions i els pronòstics meteorològics.

Per canviar el mapa: feu clic els botons verds amb una creu de color negre per apropar; al botó verd amb un guió per allunyar la imatge; o en les fletxes verdes per a mapes adjacents.


METAR-TAF: